Etusivu
METAR-TAF:

METAR-TAF

Lentoasemat :

Roseau Municipal Airport (Rudy Billberg Field)

Roseau, Minnesota, Yhdysvallat

Leveyspiiri: 48-51N, Pituuspiiri: 095-42W, korkeus merenpinnasta: 323 m

Tämänhetkinen sää

Tämä raportti tehtiin 19 minuuttia sitten, kello 09.22 UTC
Tuuli 5 kn luoteesta
Lämpötila 0°C
Kosteus 80%
Ilmanpaine 1017 hPa
Näkyvyys: 16.1 km
selkeää

METAR: KROX 260922Z AUTO 31005KT 10SM CLR 00/M03 A3003 RMK AO2

Aika: 04:41 (09:41 UTC)


TAF: puuttuu

Säähavainnot ja -ennusteet yli 4000 lentoasemalta (METAR- ja TAF-raportit).

Käytössä olevat sääasemat on merkitty karttaan keltaisilla ja punaisilla pisteillä.

Aseta hiiri pisteen päälle nähdäksesi sääaseman nimen.

Klikkaa sitten nähdäksesi säähavainnot ja -ennusteet.

Kartan vaihtaminen: klikkaa mustalla rastilla varustettuja vihreitä pisteitä, niin voit zoomata sisään; viivalla varustettua vihreää pistettä, niin voit zoomata ulos tai vihreitä nuolia, niin pääset viereisille kartoille.


METAR-TAF: